Sulphur Springs, Texas
Current Conditions -  °F | °C
As of 11:35 PM on Monday 26 Jan 2015 (Local Time) from KSLR Reporting Station
Clear Clear  
Wind Chill: 52°   Ceiling: Unl
Heat Index: 52°   Visibility: 10mi
Dew Point: 40°   Wind: 0mph
Humidity: 63%   Direction: NA
Pressure: 30.09"   Gusts: NA
Location:  33.14°N, 95.6°W
Report Text: KSLR 270535Z AUTO 00000KT 10SM CLR 11/04 A3009 RMK AO2 T01110042
Loading
Personal Weather Stations






























Interactive Weather Map New forecast layout! Learn more

10-Day Weather Forecast

Advertisements
Track Severe Weather on mobile